createdAt,value
2023-03-05T00:00:10.423Z,1.22
2023-03-05T00:01:12.883Z,1.11
2023-03-05T00:02:15.443Z,1.42
2023-03-05T00:03:18.042Z,1.37
2023-03-05T00:04:20.552Z,1.41
2023-03-05T00:05:22.801Z,1.51
2023-03-05T00:06:25.617Z,1.37
2023-03-05T00:07:28.040Z,1.52
2023-03-05T00:08:30.595Z,1.37
2023-03-05T00:09:34.915Z,1.49
2023-03-05T00:10:36.807Z,1.41
2023-03-05T00:11:39.312Z,1.49
2023-03-05T00:12:41.726Z,1.52
2023-03-05T00:13:44.213Z,1.45
2023-03-05T00:14:46.414Z,1.36
2023-03-05T00:15:48.653Z,1.46
2023-03-05T00:16:50.916Z,1.29
2023-03-05T00:17:53.080Z,1.37
2023-03-05T00:18:55.306Z,1.41
2023-03-05T00:19:57.769Z,1.46
2023-03-05T00:21:00.238Z,1.35
2023-03-05T00:22:02.638Z,1.43
2023-03-05T00:23:05.080Z,1.24
2023-03-05T00:24:07.541Z,1.50
2023-03-05T00:25:09.977Z,1.26
2023-03-05T00:26:13.040Z,1.58
2023-03-05T00:27:15.458Z,1.56
2023-03-05T00:28:17.893Z,1.72
2023-03-05T00:29:20.342Z,1.41
2023-03-05T00:30:22.860Z,1.58
2023-03-05T00:31:25.475Z,1.98
2023-03-05T00:32:28.049Z,2.35
2023-03-05T00:33:30.408Z,2.30
2023-03-05T00:34:32.915Z,2.23
2023-03-05T00:35:36.124Z,2.07
2023-03-05T00:36:38.842Z,2.02
2023-03-05T00:37:41.324Z,2.08
2023-03-05T00:38:43.795Z,2.00
2023-03-05T00:39:46.286Z,2.29
2023-03-05T00:40:48.677Z,2.19
2023-03-05T00:41:51.376Z,2.14
2023-03-05T00:42:53.920Z,2.26
2023-03-05T00:43:56.324Z,2.16
2023-03-05T00:44:58.770Z,2.00
2023-03-05T00:46:01.192Z,1.67
2023-03-05T00:47:03.933Z,2.17
2023-03-05T00:48:06.154Z,2.08
2023-03-05T00:49:08.388Z,2.12
2023-03-05T00:50:10.576Z,2.46
2023-03-05T00:51:12.794Z,2.09
2023-03-05T00:52:15.074Z,2.24
2023-03-05T00:53:17.350Z,2.18
2023-03-05T00:54:19.579Z,1.98
2023-03-05T00:55:22.070Z,2.22
2023-03-05T00:56:24.480Z,2.16
2023-03-05T00:57:27.172Z,2.01
2023-03-05T00:58:29.667Z,2.20
2023-03-05T00:59:32.091Z,2.16
2023-03-05T01:00:34.505Z,2.22
2023-03-05T01:01:37.169Z,2.41
2023-03-05T01:02:39.797Z,2.48
2023-03-05T01:03:42.264Z,2.57
2023-03-05T01:04:44.722Z,2.09
2023-03-05T01:05:47.140Z,1.92
2023-03-05T01:06:49.708Z,2.32
2023-03-05T01:07:52.419Z,2.45
2023-03-05T01:08:54.917Z,2.34
2023-03-05T01:09:57.409Z,2.27
2023-03-05T01:10:59.935Z,2.25
2023-03-05T01:12:02.484Z,2.29
2023-03-05T01:13:05.022Z,2.62
2023-03-05T01:14:07.519Z,2.53
2023-03-05T01:15:09.972Z,2.46
2023-03-05T01:16:12.450Z,2.75
2023-03-05T01:17:14.930Z,2.35
2023-03-05T01:18:17.380Z,2.43
2023-03-05T01:19:19.896Z,2.72
2023-03-05T01:20:22.344Z,2.73
2023-03-05T01:21:24.848Z,2.49
2023-03-05T01:22:27.102Z,2.68
2023-03-05T01:23:29.692Z,2.87
2023-03-05T01:24:31.898Z,2.22
2023-03-05T01:25:34.129Z,2.62
2023-03-05T01:26:36.262Z,2.63
2023-03-05T01:27:38.464Z,2.29
2023-03-05T01:28:40.910Z,2.41
2023-03-05T01:29:43.078Z,2.69
2023-03-05T01:30:45.299Z,2.41
2023-03-05T01:31:47.624Z,2.52
2023-03-05T01:32:49.882Z,2.86
2023-03-05T01:33:52.253Z,2.92
2023-03-05T01:34:54.518Z,2.71
2023-03-05T01:35:56.697Z,2.93
2023-03-05T01:36:59.254Z,2.71
2023-03-05T01:38:02.073Z,2.82
2023-03-05T01:39:05.068Z,2.55
2023-03-05T01:40:07.576Z,2.61
2023-03-05T01:41:10.004Z,2.58
2023-03-05T01:42:12.530Z,2.58
2023-03-05T01:43:14.958Z,2.66
2023-03-05T01:44:17.858Z,2.65
2023-03-05T01:45:20.246Z,2.48
2023-03-05T01:46:22.756Z,2.68
2023-03-05T01:47:25.170Z,2.39
2023-03-05T01:48:27.342Z,2.62
2023-03-05T01:49:29.913Z,2.75
2023-03-05T01:50:33.112Z,2.95
2023-03-05T01:51:35.529Z,2.36
2023-03-05T01:52:37.995Z,2.18
2023-03-05T01:53:40.444Z,2.44
2023-03-05T01:54:43.372Z,2.18
2023-03-05T01:55:45.606Z,2.28
2023-03-05T01:56:47.901Z,2.75
2023-03-05T01:57:50.159Z,2.64
2023-03-05T01:58:52.509Z,2.52
2023-03-05T01:59:54.954Z,2.45
2023-03-05T02:00:57.163Z,2.32
2023-03-05T02:01:59.596Z,2.68
2023-03-05T02:03:02.052Z,2.37
2023-03-05T02:04:04.484Z,2.19
2023-03-05T02:05:07.372Z,2.55
2023-03-05T02:06:09.831Z,2.63
2023-03-05T02:07:12.278Z,2.47
2023-03-05T02:08:14.843Z,2.62
2023-03-05T02:09:17.106Z,2.46
2023-03-05T02:10:19.642Z,2.37
2023-03-05T02:11:22.133Z,2.35
2023-03-05T02:12:24.758Z,2.72
2023-03-05T02:13:27.211Z,2.28
2023-03-05T02:14:29.754Z,2.45
2023-03-05T02:15:32.680Z,2.33
2023-03-05T02:16:35.296Z,2.25
2023-03-05T02:17:37.728Z,2.42
2023-03-05T02:18:40.189Z,2.20
2023-03-05T02:19:42.605Z,2.11
2023-03-05T02:20:45.253Z,2.04
2023-03-05T02:21:47.739Z,2.49
2023-03-05T02:22:50.428Z,1.95
2023-03-05T02:23:52.842Z,2.15
2023-03-05T02:24:55.261Z,2.11
2023-03-05T02:25:57.916Z,2.22
2023-03-05T02:27:00.511Z,1.87
2023-03-05T02:28:02.729Z,2.15
2023-03-05T02:29:05.190Z,2.02
2023-03-05T02:30:07.573Z,2.08
2023-03-05T02:31:09.792Z,1.97
2023-03-05T02:32:12.187Z,2.00
2023-03-05T02:33:14.491Z,2.40
2023-03-05T02:34:16.790Z,1.97
2023-03-05T02:35:19.086Z,2.23
2023-03-05T02:36:21.470Z,1.92
2023-03-05T02:37:23.686Z,1.96
2023-03-05T02:38:25.866Z,2.18
2023-03-05T02:39:28.054Z,2.40
2023-03-05T02:40:30.261Z,2.24
2023-03-05T02:41:32.594Z,1.92
2023-03-05T02:42:34.886Z,2.11
2023-03-05T02:43:37.211Z,2.27
2023-03-05T02:44:39.495Z,2.43
2023-03-05T02:45:41.821Z,2.05
2023-03-05T02:46:44.673Z,2.26
2023-03-05T02:47:46.946Z,2.28
2023-03-05T02:48:49.184Z,2.12
2023-03-05T02:49:51.426Z,2.07
2023-03-05T02:50:53.732Z,1.87
2023-03-05T02:51:55.997Z,1.98
2023-03-05T02:52:58.269Z,1.89
2023-03-05T02:54:00.485Z,1.70
2023-03-05T02:55:02.732Z,2.05
2023-03-05T02:56:05.008Z,1.83
2023-03-05T02:57:07.238Z,2.08
2023-03-05T02:58:09.437Z,1.91
2023-03-05T02:59:11.583Z,2.05
2023-03-05T03:00:13.785Z,1.91
2023-03-05T03:01:16.365Z,2.67
2023-03-05T03:02:18.937Z,1.89
2023-03-05T03:03:21.836Z,1.67
2023-03-05T03:04:24.415Z,2.05
2023-03-05T03:05:26.841Z,2.16
2023-03-05T03:06:29.487Z,2.01
2023-03-05T03:07:32.084Z,1.84
2023-03-05T03:08:34.518Z,2.04
2023-03-05T03:09:36.762Z,2.01
2023-03-05T03:10:39.213Z,2.08
2023-03-05T03:11:41.642Z,2.27
2023-03-05T03:12:44.156Z,1.85
2023-03-05T03:13:46.612Z,2.05
2023-03-05T03:14:49.069Z,2.14
2023-03-05T03:15:51.487Z,2.14
2023-03-05T03:16:53.993Z,1.80
2023-03-05T03:17:57.048Z,1.88
2023-03-05T03:18:59.490Z,2.15
2023-03-05T03:20:02.007Z,2.08
2023-03-05T03:21:04.466Z,1.95
2023-03-05T03:22:07.051Z,1.49
2023-03-05T03:23:09.671Z,1.89
2023-03-05T03:24:11.899Z,1.74
2023-03-05T03:25:14.210Z,2.05
2023-03-05T03:26:16.422Z,1.91
2023-03-05T03:27:18.667Z,1.89
2023-03-05T03:28:21.027Z,1.67
2023-03-05T03:29:23.242Z,2.12
2023-03-05T03:30:25.417Z,2.23
2023-03-05T03:31:27.686Z,2.06
2023-03-05T03:32:29.965Z,2.17
2023-03-05T03:33:32.591Z,1.83
2023-03-05T03:34:35.172Z,2.14
2023-03-05T03:35:37.641Z,2.08
2023-03-05T03:36:40.060Z,2.02
2023-03-05T03:37:42.444Z,2.15
2023-03-05T03:38:45.112Z,2.36
2023-03-05T03:39:47.622Z,1.89
2023-03-05T03:40:50.068Z,1.88
2023-03-05T03:41:52.522Z,2.06
2023-03-05T03:42:55.057Z,2.10
2023-03-05T03:43:57.523Z,1.83
2023-03-05T03:44:59.968Z,1.92
2023-03-05T03:46:02.439Z,1.97
2023-03-05T03:47:04.894Z,1.92
2023-03-05T03:48:07.502Z,2.02
2023-03-05T03:49:10.009Z,2.23
2023-03-05T03:50:12.492Z,2.13
2023-03-05T03:51:14.957Z,2.26
2023-03-05T03:52:17.471Z,2.24
2023-03-05T03:53:20.031Z,2.15
2023-03-05T03:54:22.952Z,2.17
2023-03-05T03:55:25.787Z,2.45
2023-03-05T03:56:28.233Z,2.35
2023-03-05T03:57:30.795Z,2.04
2023-03-05T03:58:33.266Z,2.28
2023-03-05T03:59:35.730Z,2.14
2023-03-05T04:00:38.214Z,2.08
2023-03-05T04:01:40.624Z,1.88
2023-03-05T04:02:43.102Z,1.62
2023-03-05T04:03:45.586Z,2.44
2023-03-05T04:04:48.154Z,2.02
2023-03-05T04:05:50.607Z,2.35
2023-03-05T04:06:53.050Z,2.10
2023-03-05T04:07:57.125Z,2.27
2023-03-05T04:08:59.466Z,1.96
2023-03-05T04:10:01.916Z,1.99
2023-03-05T04:11:04.324Z,2.13
2023-03-05T04:12:06.547Z,2.17
2023-03-05T04:13:08.758Z,1.62
2023-03-05T04:14:11.077Z,2.34
2023-03-05T04:15:13.486Z,2.33
2023-03-05T04:16:15.873Z,2.15
2023-03-05T04:17:18.163Z,1.96
2023-03-05T04:18:20.575Z,2.14
2023-03-05T04:19:23.054Z,2.22
2023-03-05T04:20:25.656Z,2.14
2023-03-05T04:21:28.152Z,2.14
2023-03-05T04:22:30.976Z,2.02
2023-03-05T04:23:33.503Z,2.18
2023-03-05T04:24:35.953Z,2.44
2023-03-05T04:25:38.580Z,1.96
2023-03-05T04:26:41.111Z,2.16
2023-03-05T04:27:43.590Z,2.09
2023-03-05T04:28:46.042Z,2.16
2023-03-05T04:29:48.554Z,1.95
2023-03-05T04:30:51.262Z,2.43
2023-03-05T04:31:53.820Z,2.05
2023-03-05T04:32:56.271Z,2.27
2023-03-05T04:33:58.823Z,1.99
2023-03-05T04:35:01.333Z,2.19
2023-03-05T04:36:04.059Z,2.04
2023-03-05T04:37:06.465Z,2.11
2023-03-05T04:38:08.769Z,2.11
2023-03-05T04:39:11.250Z,2.26
2023-03-05T04:40:13.739Z,2.04
2023-03-05T04:41:16.403Z,2.00
2023-03-05T04:42:18.924Z,1.81
2023-03-05T04:43:21.331Z,2.18
2023-03-05T04:44:23.833Z,2.24
2023-03-05T04:45:26.250Z,1.98
2023-03-05T04:46:28.810Z,2.44
2023-03-05T04:47:31.342Z,2.31
2023-03-05T04:48:34.136Z,2.24
2023-03-05T04:49:36.604Z,2.11
2023-03-05T04:50:39.033Z,2.58
2023-03-05T04:51:41.361Z,2.05
2023-03-05T04:52:43.754Z,2.29
2023-03-05T04:53:46.324Z,2.26
2023-03-05T04:54:48.994Z,2.27
2023-03-05T04:55:51.488Z,2.65
2023-03-05T04:56:54.540Z,2.50
2023-03-05T04:57:57.011Z,2.03
2023-03-05T04:58:59.238Z,2.07
2023-03-05T05:00:01.704Z,2.17
2023-03-05T05:01:04.183Z,2.23
2023-03-05T05:02:06.826Z,2.94
2023-03-05T05:03:09.439Z,2.28
2023-03-05T05:04:11.931Z,2.59
2023-03-05T05:05:15.805Z,2.28
2023-03-05T05:06:18.308Z,2.50
2023-03-05T05:07:20.791Z,2.22
2023-03-05T05:08:23.057Z,2.28
2023-03-05T05:09:25.292Z,2.22
2023-03-05T05:10:27.494Z,2.17
2023-03-05T05:11:29.731Z,2.53
2023-03-05T05:12:32.233Z,2.48
2023-03-05T05:13:34.499Z,2.10
2023-03-05T05:14:36.743Z,2.37
2023-03-05T05:15:38.937Z,2.39
2023-03-05T05:16:41.484Z,2.56
2023-03-05T05:17:44.031Z,2.33
2023-03-05T05:18:46.481Z,2.28
2023-03-05T05:19:49.078Z,2.49
2023-03-05T05:20:51.647Z,2.37
2023-03-05T05:21:54.103Z,2.24
2023-03-05T05:22:56.788Z,2.22
2023-03-05T05:23:59.104Z,2.48
2023-03-05T05:25:01.582Z,1.98
2023-03-05T05:26:04.067Z,2.17
2023-03-05T05:27:06.568Z,2.17
2023-03-05T05:28:10.765Z,2.40
2023-03-05T05:29:13.157Z,2.60
2023-03-05T05:30:15.654Z,2.52
2023-03-05T05:31:18.273Z,2.76
2023-03-05T05:32:20.834Z,2.49
2023-03-05T05:33:23.148Z,2.70
2023-03-05T05:34:25.619Z,3.18
2023-03-05T05:35:28.185Z,2.59
2023-03-05T05:36:30.753Z,2.79
2023-03-05T05:37:33.207Z,3.15
2023-03-05T05:38:36.218Z,2.27
2023-03-05T05:39:38.683Z,2.45
2023-03-05T05:40:41.102Z,2.29
2023-03-05T05:41:43.540Z,2.22
2023-03-05T05:42:45.981Z,2.45
2023-03-05T05:43:48.490Z,2.81
2023-03-05T05:44:50.937Z,3.42
2023-03-05T05:45:53.457Z,3.72
2023-03-05T05:46:55.976Z,4.16
2023-03-05T05:47:58.606Z,3.62
2023-03-05T05:49:01.378Z,3.38
2023-03-05T05:50:03.810Z,3.04
2023-03-05T05:51:06.253Z,2.87
2023-03-05T05:52:12.162Z,3.61
2023-03-05T05:53:14.633Z,3.15
2023-03-05T05:54:17.138Z,2.86
2023-03-05T05:55:19.566Z,2.42
2023-03-05T05:56:21.980Z,2.58
2023-03-05T05:57:24.374Z,2.38
2023-03-05T05:58:26.855Z,2.75
2023-03-05T06:00:37.545Z,2.58
2023-03-05T06:01:40.129Z,2.72
2023-03-05T06:02:42.651Z,2.76
2023-03-05T06:03:45.211Z,2.54
2023-03-05T06:04:47.704Z,2.69
2023-03-05T06:07:06.104Z,2.76
2023-03-05T06:08:08.513Z,3.00
2023-03-05T06:09:10.967Z,2.53
2023-03-05T06:10:13.464Z,2.69
2023-03-05T06:11:18.233Z,2.68
2023-03-05T06:12:20.098Z,2.59
2023-03-05T06:14:38.567Z,2.33
2023-03-05T06:15:41.225Z,2.96
2023-03-05T06:16:43.782Z,2.61
2023-03-05T06:17:46.306Z,2.71
2023-03-05T06:18:48.755Z,2.59
2023-03-05T06:19:51.264Z,2.55
2023-03-05T06:20:53.845Z,2.82
2023-03-05T06:21:56.280Z,2.64
2023-03-05T06:22:58.861Z,2.44
2023-03-05T06:24:01.377Z,2.55
2023-03-05T06:26:20.211Z,2.93
2023-03-05T06:27:22.967Z,2.98
2023-03-05T06:28:25.354Z,2.62
2023-03-05T06:29:27.792Z,2.92
2023-03-05T06:30:30.313Z,2.81
2023-03-05T06:31:58.984Z,2.78
2023-03-05T06:33:01.789Z,2.36
2023-03-05T06:34:04.658Z,2.82
2023-03-05T06:35:07.439Z,2.68
2023-03-05T06:36:10.514Z,2.65
2023-03-05T06:37:13.696Z,3.23
2023-03-05T06:38:16.781Z,2.83
2023-03-05T06:39:19.640Z,2.92
2023-03-05T06:40:22.840Z,2.80
2023-03-05T06:41:25.701Z,2.88
2023-03-05T06:42:28.807Z,3.02
2023-03-05T06:43:31.513Z,2.85
2023-03-05T06:44:34.274Z,3.20
2023-03-05T06:45:37.410Z,2.99
2023-03-05T06:46:40.516Z,2.72
2023-03-05T06:47:43.458Z,2.49
2023-03-05T06:48:46.334Z,3.30
2023-03-05T06:49:48.918Z,3.05
2023-03-05T06:50:52.086Z,2.59
2023-03-05T06:51:54.958Z,2.92
2023-03-05T06:52:58.139Z,3.25
2023-03-05T06:54:00.923Z,2.68
2023-03-05T06:55:04.206Z,2.69
2023-03-05T06:56:07.401Z,2.74
2023-03-05T06:57:10.152Z,3.14
2023-03-05T06:58:13.235Z,2.76
2023-03-05T06:59:16.138Z,2.98
2023-03-05T07:00:18.884Z,3.15
2023-03-05T07:01:21.728Z,3.19
2023-03-05T07:02:24.906Z,3.17
2023-03-05T07:03:27.556Z,2.74
2023-03-05T07:04:30.774Z,3.05
2023-03-05T07:05:34.581Z,2.92
2023-03-05T07:06:37.983Z,2.80
2023-03-05T07:07:41.457Z,2.77
2023-03-05T07:08:44.980Z,2.86
2023-03-05T07:09:48.423Z,2.97
2023-03-05T07:10:52.128Z,2.99
2023-03-05T07:11:55.617Z,2.86
2023-03-05T07:12:59.417Z,3.04
2023-03-05T07:14:02.989Z,3.08
2023-03-05T07:15:06.070Z,3.00
2023-03-05T07:16:08.961Z,2.81
2023-03-05T07:17:11.531Z,2.61
2023-03-05T07:18:14.508Z,3.14
2023-03-05T07:19:17.582Z,3.12
2023-03-05T07:20:20.570Z,3.27
2023-03-05T07:21:23.429Z,3.15
2023-03-05T07:22:26.408Z,3.02
2023-03-05T07:23:29.500Z,3.36
2023-03-05T07:24:32.777Z,3.22
2023-03-05T07:25:35.576Z,3.05
2023-03-05T07:26:38.462Z,3.33
2023-03-05T07:27:41.546Z,3.87
2023-03-05T07:28:44.292Z,3.99
2023-03-05T07:29:47.489Z,3.39
2023-03-05T07:30:50.452Z,3.55
2023-03-05T07:31:53.200Z,3.46
2023-03-05T07:32:56.075Z,3.37
2023-03-05T07:33:59.351Z,3.30
2023-03-05T07:35:02.738Z,3.59
2023-03-05T07:36:06.040Z,3.30
2023-03-05T07:37:09.945Z,3.22
2023-03-05T07:38:13.413Z,3.11
2023-03-05T07:39:16.414Z,3.21
2023-03-05T07:40:19.823Z,3.55
2023-03-05T07:41:23.074Z,3.48
2023-03-05T07:42:25.986Z,4.12
2023-03-05T07:43:28.907Z,3.67
2023-03-05T07:44:32.122Z,3.34
2023-03-05T07:45:35.272Z,3.67
2023-03-05T07:46:38.522Z,3.85
2023-03-05T07:47:41.282Z,3.61
2023-03-05T07:48:43.928Z,3.59
2023-03-05T07:49:46.596Z,3.62
2023-03-05T07:50:49.762Z,3.35
2023-03-05T07:51:52.653Z,3.69
2023-03-05T07:52:56.007Z,3.85
2023-03-05T07:53:58.666Z,4.18
2023-03-05T07:55:01.190Z,4.39
2023-03-05T07:56:04.490Z,3.67
2023-03-05T07:57:07.562Z,3.63
2023-03-05T07:58:10.619Z,3.59
2023-03-05T07:59:13.782Z,3.61
2023-03-05T08:00:17.279Z,3.18
2023-03-05T08:01:20.755Z,4.08
2023-03-05T08:02:23.737Z,3.98
2023-03-05T08:03:27.233Z,3.82
2023-03-05T08:04:31.207Z,4.04
2023-03-05T08:05:34.325Z,4.14
2023-03-05T08:06:37.806Z,4.13
2023-03-05T08:07:40.984Z,4.35
2023-03-05T08:08:44.093Z,4.20
2023-03-05T08:09:46.998Z,4.30
2023-03-05T08:10:49.813Z,3.93
2023-03-05T08:11:53.096Z,4.53
2023-03-05T08:12:56.064Z,4.12
2023-03-05T08:13:59.072Z,3.48
2023-03-05T08:15:01.721Z,3.49
2023-03-05T08:16:04.772Z,4.08
2023-03-05T08:17:07.881Z,3.82
2023-03-05T08:18:10.657Z,3.64
2023-03-05T08:19:13.819Z,3.54
2023-03-05T08:20:17.127Z,4.12
2023-03-05T08:21:20.324Z,4.33
2023-03-05T08:22:23.779Z,4.09
2023-03-05T08:23:27.260Z,4.11
2023-03-05T08:24:30.873Z,4.33
2023-03-05T08:25:34.033Z,4.16
2023-03-05T08:26:37.422Z,4.11
2023-03-05T08:27:40.718Z,3.91
2023-03-05T08:28:43.600Z,4.06
2023-03-05T08:29:46.377Z,4.88
2023-03-05T08:30:49.245Z,4.48
2023-03-05T08:31:51.938Z,4.58
2023-03-05T08:32:55.501Z,4.50
2023-03-05T08:33:58.775Z,4.21
2023-03-05T08:35:02.263Z,4.22
2023-03-05T08:36:05.338Z,4.32
2023-03-05T08:37:08.141Z,4.45
2023-03-05T08:38:11.096Z,4.22
2023-03-05T08:39:14.080Z,4.55
2023-03-05T08:40:17.250Z,4.12
2023-03-05T08:41:20.691Z,4.45
2023-03-05T08:42:24.031Z,4.04
2023-03-05T08:43:27.921Z,3.82
2023-03-05T08:44:31.413Z,4.41
2023-03-05T08:45:34.891Z,4.11
2023-03-05T08:46:38.070Z,4.28
2023-03-05T08:47:40.978Z,3.99
2023-03-05T08:48:44.576Z,4.10
2023-03-05T08:49:47.739Z,4.95
2023-03-05T08:50:51.116Z,4.78
2023-03-05T08:51:54.129Z,4.91
2023-03-05T08:52:57.087Z,4.08
2023-03-05T08:53:59.737Z,4.22
2023-03-05T08:55:02.552Z,4.33
2023-03-05T08:56:05.692Z,4.05
2023-03-05T08:57:08.779Z,4.35
2023-03-05T08:58:12.000Z,4.25
2023-03-05T08:59:15.655Z,4.53
2023-03-05T09:00:18.559Z,4.31
2023-03-05T09:01:21.616Z,4.47
2023-03-05T09:02:24.691Z,4.46
2023-03-05T09:03:27.889Z,4.54
2023-03-05T09:04:31.463Z,4.62
2023-03-05T09:05:34.248Z,4.40
2023-03-05T09:06:37.717Z,4.38
2023-03-05T09:07:40.897Z,4.30
2023-03-05T09:08:44.301Z,4.77
2023-03-05T09:09:47.309Z,4.69
2023-03-05T09:10:50.529Z,4.82
2023-03-05T09:11:53.555Z,4.97
2023-03-05T09:12:57.380Z,4.83
2023-03-05T09:14:00.405Z,4.75
2023-03-05T09:15:03.577Z,4.52
2023-03-05T09:16:07.260Z,4.42
2023-03-05T09:17:10.356Z,4.33
2023-03-05T09:18:13.638Z,4.55
2023-03-05T09:19:16.816Z,4.60
2023-03-05T09:20:20.335Z,4.46
2023-03-05T09:21:23.395Z,4.41
2023-03-05T09:22:26.180Z,4.48
2023-03-05T09:23:29.359Z,4.83
2023-03-05T09:24:32.244Z,4.50
2023-03-05T09:25:35.724Z,4.52
2023-03-05T09:26:38.517Z,4.22
2023-03-05T09:27:41.503Z,4.69
2023-03-05T09:28:44.445Z,5.18
2023-03-05T09:29:47.339Z,4.40
2023-03-05T09:30:50.796Z,4.82
2023-03-05T09:31:54.101Z,4.67
2023-03-05T09:32:57.163Z,4.53
2023-03-05T09:34:00.358Z,4.95
2023-03-05T09:35:03.824Z,3.92
2023-03-05T09:36:07.251Z,4.29
2023-03-05T09:37:10.524Z,4.48
2023-03-05T09:38:13.690Z,4.43
2023-03-05T09:39:16.686Z,4.55
2023-03-05T09:40:21.391Z,4.75
2023-03-05T09:41:24.964Z,4.89
2023-03-05T09:42:28.351Z,5.07
2023-03-05T09:43:31.575Z,4.77
2023-03-05T09:44:34.612Z,4.56
2023-03-05T09:45:37.730Z,4.54
2023-03-05T09:46:41.450Z,4.65
2023-03-05T09:47:44.505Z,4.37
2023-03-05T09:48:47.188Z,4.63
2023-03-05T09:49:50.360Z,4.62
2023-03-05T09:50:53.402Z,4.82
2023-03-05T09:51:57.335Z,4.56
2023-03-05T09:53:00.107Z,3.81
2023-03-05T09:54:03.318Z,3.97
2023-03-05T09:55:06.137Z,4.71
2023-03-05T09:56:08.916Z,4.18
2023-03-05T09:57:12.200Z,4.45
2023-03-05T09:58:15.591Z,5.04
2023-03-05T09:59:18.460Z,5.42
2023-03-05T10:00:21.566Z,4.75
2023-03-05T10:01:24.932Z,4.44
2023-03-05T10:02:28.117Z,4.68
2023-03-05T10:03:31.465Z,4.79
2023-03-05T10:04:34.356Z,4.40
2023-03-05T10:05:37.850Z,4.30
2023-03-05T10:06:41.041Z,4.05
2023-03-05T10:07:44.016Z,3.88
2023-03-05T10:08:47.408Z,4.19
2023-03-05T10:09:50.328Z,4.29
2023-03-05T10:10:53.067Z,4.35
2023-03-05T10:11:56.040Z,4.67
2023-03-05T10:12:59.114Z,4.47
2023-03-05T10:14:02.380Z,4.47
2023-03-05T10:15:05.260Z,4.43
2023-03-05T10:16:08.388Z,4.56
2023-03-05T10:17:11.333Z,4.59
2023-03-05T10:18:14.280Z,4.41
2023-03-05T10:19:17.377Z,5.03
2023-03-05T10:20:20.418Z,5.27
2023-03-05T10:21:23.621Z,4.72
2023-03-05T10:22:26.505Z,5.02
2023-03-05T10:23:29.507Z,5.31
2023-03-05T10:24:32.559Z,4.38
2023-03-05T10:25:35.439Z,4.92
2023-03-05T10:26:38.412Z,5.12
2023-03-05T10:27:41.599Z,4.72
2023-03-05T10:28:44.580Z,4.68
2023-03-05T10:29:47.657Z,5.15
2023-03-05T10:30:50.535Z,4.74
2023-03-05T10:31:54.015Z,4.88
2023-03-05T10:32:56.780Z,5.13
2023-03-05T10:33:59.757Z,4.81
2023-03-05T10:35:02.542Z,5.10
2023-03-05T10:36:05.715Z,4.81
2023-03-05T10:37:08.600Z,4.54
2023-03-05T10:38:12.002Z,4.79
2023-03-05T10:39:14.964Z,4.82
2023-03-05T10:40:17.778Z,4.60
2023-03-05T10:41:20.684Z,4.41
2023-03-05T10:42:23.779Z,4.58
2023-03-05T10:43:26.565Z,4.50
2023-03-05T10:44:29.541Z,5.30
2023-03-05T10:45:32.655Z,5.25
2023-03-05T10:46:35.494Z,4.78
2023-03-05T10:47:38.456Z,5.13
2023-03-05T10:48:41.531Z,4.37
2023-03-05T10:49:44.740Z,5.08
2023-03-05T10:50:47.801Z,4.52
2023-03-05T10:51:50.981Z,4.80
2023-03-05T10:52:53.956Z,4.69
2023-03-05T10:53:57.139Z,5.10
2023-03-05T10:55:00.846Z,5.19
2023-03-05T10:56:03.926Z,4.82
2023-03-05T10:57:07.094Z,4.94
2023-03-05T10:58:10.182Z,5.14
2023-03-05T10:59:13.673Z,5.22
2023-03-05T11:00:17.462Z,4.98
2023-03-05T11:01:20.635Z,5.09
2023-03-05T11:02:24.024Z,4.88
2023-03-05T11:03:27.211Z,4.56
2023-03-05T11:04:30.411Z,5.12
2023-03-05T11:05:33.775Z,5.08
2023-03-05T11:06:36.970Z,5.16
2023-03-05T11:07:40.073Z,5.02
2023-03-05T11:08:43.553Z,5.10
2023-03-05T11:09:46.820Z,4.83
2023-03-05T11:10:50.110Z,5.34
2023-03-05T11:11:53.271Z,5.15
2023-03-05T11:12:56.351Z,5.65
2023-03-05T11:13:59.503Z,5.25
2023-03-05T11:15:02.404Z,5.25
2023-03-05T11:16:06.000Z,5.44
2023-03-05T11:17:08.985Z,5.14
2023-03-05T11:24:33.097Z,6.45
2023-03-05T11:25:36.372Z,4.46
2023-03-05T11:26:39.363Z,5.40
2023-03-05T11:27:42.295Z,5.49
2023-03-05T11:28:45.742Z,5.28
2023-03-05T11:29:49.268Z,5.95
2023-03-05T11:30:52.504Z,6.04
2023-03-05T11:31:55.682Z,5.55
2023-03-05T11:32:58.664Z,5.68
2023-03-05T11:34:01.829Z,5.57
2023-03-05T11:35:04.920Z,5.42
2023-03-05T11:36:08.105Z,5.92
2023-03-05T11:37:11.273Z,6.23
2023-03-05T11:38:14.475Z,5.26
2023-03-05T11:39:17.696Z,5.39
2023-03-05T11:40:21.016Z,5.82
2023-03-05T11:41:24.145Z,5.83
2023-03-05T11:42:27.566Z,5.75
2023-03-05T11:43:31.178Z,6.48
2023-03-05T11:44:34.344Z,5.84
2023-03-05T11:45:37.367Z,5.69
2023-03-05T11:46:40.747Z,5.68
2023-03-05T11:47:44.031Z,5.32
2023-03-05T11:48:47.651Z,5.81
2023-03-05T11:49:51.080Z,5.23
2023-03-05T11:50:54.502Z,5.62
2023-03-05T11:51:57.797Z,5.92
2023-03-05T11:53:01.158Z,5.01
2023-03-05T11:54:04.451Z,5.66
2023-03-05T11:55:07.657Z,4.88
2023-03-05T11:56:10.917Z,5.61
2023-03-05T11:57:14.224Z,5.44
2023-03-05T11:58:17.589Z,6.10
2023-03-05T11:59:20.875Z,5.34
2023-03-05T12:00:24.460Z,5.35
2023-03-05T12:01:27.675Z,5.37
2023-03-05T12:02:30.865Z,4.90
2023-03-05T12:03:34.114Z,4.78
2023-03-05T12:04:37.507Z,5.37
2023-03-05T12:05:40.537Z,5.51
2023-03-05T12:06:43.698Z,5.42
2023-03-05T12:07:46.942Z,5.87
2023-03-05T12:08:50.242Z,5.77
2023-03-05T12:09:53.384Z,5.51
2023-03-05T12:10:56.488Z,4.58
2023-03-05T12:11:59.380Z,5.03
2023-03-05T12:13:02.230Z,5.62
2023-03-05T12:14:05.229Z,4.85
2023-03-05T12:15:08.230Z,5.50
2023-03-05T12:16:11.333Z,5.57
2023-03-05T12:17:14.389Z,5.17
2023-03-05T12:18:17.420Z,5.08
2023-03-05T12:19:20.253Z,4.98
2023-03-05T12:20:23.103Z,5.53
2023-03-05T12:21:26.194Z,5.12
2023-03-05T12:22:29.022Z,5.18
2023-03-05T12:23:31.814Z,4.94
2023-03-05T12:24:34.878Z,5.60
2023-03-05T12:25:37.999Z,5.31
2023-03-05T12:26:40.937Z,4.96
2023-03-05T12:27:43.916Z,5.54
2023-03-05T12:28:46.796Z,5.46
2023-03-05T12:29:50.066Z,5.01
2023-03-05T12:30:53.055Z,5.18
2023-03-05T12:31:56.348Z,4.68
2023-03-05T12:32:59.627Z,4.46
2023-03-05T12:34:02.502Z,4.79
2023-03-05T12:35:05.591Z,4.24
2023-03-05T12:36:08.789Z,4.10
2023-03-05T12:37:11.942Z,4.33
2023-03-05T12:38:26.399Z,4.31
2023-03-05T12:39:19.629Z,4.41
2023-03-05T12:40:22.607Z,4.44
2023-03-05T12:41:27.953Z,4.62
2023-03-05T12:42:30.052Z,4.27
2023-03-05T12:43:33.710Z,4.33
2023-03-05T12:44:36.665Z,4.62
2023-03-05T12:45:39.970Z,4.55
2023-03-05T12:46:43.006Z,4.15
2023-03-05T12:47:46.011Z,4.48
2023-03-05T12:48:49.266Z,4.35
2023-03-05T12:49:52.480Z,4.45
2023-03-05T12:50:55.607Z,4.34
2023-03-05T12:51:58.527Z,4.64
2023-03-05T12:53:01.824Z,4.15
2023-03-05T12:54:04.886Z,4.32
2023-03-05T12:55:07.680Z,3.80
2023-03-05T12:56:12.363Z,3.69
2023-03-05T12:57:14.161Z,4.29
2023-03-05T12:58:16.394Z,4.37
2023-03-05T12:59:18.605Z,4.01
2023-03-05T13:00:21.141Z,3.92
2023-03-05T13:01:23.602Z,3.92
2023-03-05T13:02:26.052Z,4.10
2023-03-05T13:03:28.524Z,3.90
2023-03-05T13:04:30.755Z,3.71
2023-03-05T13:05:32.976Z,3.92
2023-03-05T13:06:35.164Z,3.86
2023-03-05T13:07:37.412Z,3.53
2023-03-05T13:08:39.631Z,3.97
2023-03-05T13:09:42.042Z,4.26
2023-03-05T13:10:44.493Z,4.00
2023-03-05T13:11:47.011Z,3.72
2023-03-05T13:12:49.514Z,3.62
2023-03-05T13:13:52.256Z,3.85
2023-03-05T13:14:54.645Z,3.79
2023-03-05T13:15:57.208Z,3.42
2023-03-05T13:16:59.838Z,3.75
2023-03-05T13:18:02.230Z,3.76
2023-03-05T13:19:04.748Z,3.69
2023-03-05T13:20:07.190Z,4.23
2023-03-05T13:21:09.620Z,3.52
2023-03-05T13:22:12.116Z,3.96
2023-03-05T13:23:14.396Z,4.12
2023-03-05T13:24:16.897Z,3.48
2023-03-05T13:25:19.106Z,3.45
2023-03-05T13:26:21.332Z,3.30
2023-03-05T13:27:23.608Z,3.13
2023-03-05T13:28:25.797Z,3.45
2023-03-05T13:29:28.171Z,3.27
2023-03-05T13:30:30.440Z,3.58
2023-03-05T13:31:32.743Z,3.41
2023-03-05T13:32:35.074Z,3.15
2023-03-05T13:33:37.481Z,3.18
2023-03-05T13:34:47.622Z,3.04
2023-03-05T13:35:44.075Z,2.99
2023-03-05T13:36:46.650Z,3.63
2023-03-05T13:37:49.176Z,2.93
2023-03-05T13:38:51.638Z,3.08
2023-03-05T13:39:54.058Z,3.03
2023-03-05T13:40:58.659Z,2.87
2023-03-05T13:42:00.560Z,3.11
2023-03-05T13:43:03.019Z,3.17
2023-03-05T13:44:05.388Z,3.17
2023-03-05T13:45:07.828Z,2.96
2023-03-05T13:46:10.343Z,2.80
2023-03-05T13:47:12.869Z,3.55
2023-03-05T13:48:15.717Z,2.74
2023-03-05T13:49:18.272Z,3.22
2023-03-05T13:50:20.799Z,3.11
2023-03-05T13:51:23.283Z,2.98
2023-03-05T13:52:25.764Z,3.12
2023-03-05T13:53:28.277Z,2.83
2023-03-05T13:54:30.825Z,2.74
2023-03-05T13:55:33.299Z,2.80
2023-03-05T13:56:35.726Z,2.83
2023-03-05T13:57:38.166Z,2.77
2023-03-05T13:58:40.417Z,2.56
2023-03-05T13:59:42.884Z,2.84
2023-03-05T14:00:45.419Z,2.92
2023-03-05T14:01:48.074Z,2.96
2023-03-05T14:02:50.567Z,2.59
2023-03-05T14:03:53.135Z,2.53
2023-03-05T14:04:55.735Z,2.53
2023-03-05T14:05:58.138Z,2.68
2023-03-05T14:07:00.614Z,2.79